createdAt,value
2018-11-06T00:00:31.661Z,97.97
2018-11-06T00:03:21.459Z,97.63
2018-11-06T00:05:54.329Z,82.03
2018-11-06T00:08:26.845Z,92.60
2018-11-06T00:10:59.303Z,93.00
2018-11-06T00:13:31.722Z,88.20
2018-11-06T00:16:04.231Z,75.63
2018-11-06T00:18:36.670Z,85.43
2018-11-06T00:21:09.229Z,77.47
2018-11-06T00:23:41.725Z,76.37
2018-11-06T00:26:14.224Z,80.10
2018-11-06T00:28:46.674Z,73.00
2018-11-06T00:31:19.191Z,87.13
2018-11-06T00:33:51.662Z,88.53
2018-11-06T00:36:24.179Z,85.53
2018-11-06T00:38:56.692Z,88.97
2018-11-06T00:41:29.244Z,89.47
2018-11-06T00:44:01.618Z,91.77
2018-11-06T00:46:34.067Z,85.10
2018-11-06T00:49:06.574Z,92.97
2018-11-06T00:51:39.074Z,90.83
2018-11-06T00:54:10.737Z,90.23
2018-11-06T00:56:42.455Z,86.47
2018-11-06T00:59:15.046Z,94.77
2018-11-06T01:01:47.560Z,85.20
2018-11-06T01:04:19.956Z,84.03
2018-11-06T01:06:52.435Z,90.17
2018-11-06T01:09:43.406Z,93.30
2018-11-06T01:12:35.596Z,117.30
2018-11-06T01:15:46.507Z,91.33
2018-11-06T01:18:55.855Z,107.83
2018-11-06T01:22:05.332Z,93.60
2018-11-06T01:24:56.296Z,138.50
2018-11-06T01:27:47.851Z,285.80
2018-11-06T01:30:39.009Z,97.17
2018-11-06T01:33:29.879Z,393.83
2018-11-06T01:36:20.841Z,435.40
2018-11-06T01:39:30.642Z,540.87
2018-11-06T01:42:21.632Z,225.73
2018-11-06T01:45:31.427Z,415.40
2018-11-06T01:48:22.341Z,209.00
2018-11-06T01:51:13.289Z,131.10
2018-11-06T01:54:04.167Z,103.20
2018-11-06T01:56:55.100Z,290.73
2018-11-06T01:59:46.098Z,223.43
2018-11-06T02:02:55.362Z,107.80
2018-11-06T02:05:46.372Z,155.53
2018-11-06T02:08:37.308Z,76.23
2018-11-06T02:11:47.730Z,73.47
2018-11-06T02:14:38.906Z,64.37
2018-11-06T02:17:30.122Z,110.40
2018-11-06T02:20:21.062Z,81.80
2018-11-06T02:23:12.060Z,97.37
2018-11-06T02:26:02.999Z,196.30
2018-11-06T02:29:12.638Z,116.57
2018-11-06T02:32:23.139Z,148.50
2018-11-06T02:35:32.363Z,226.47
2018-11-06T02:38:23.272Z,69.80
2018-11-06T02:41:14.182Z,176.40
2018-11-06T02:44:05.061Z,59.63
2018-11-06T02:47:14.411Z,55.60
2018-11-06T02:50:05.452Z,54.77
2018-11-06T02:52:56.389Z,59.97
2018-11-06T02:55:47.375Z,73.50
2018-11-06T02:58:38.406Z,95.10
2018-11-06T03:01:48.221Z,92.77
2018-11-06T03:04:58.533Z,128.73
2018-11-06T03:07:49.510Z,93.57
2018-11-06T03:10:41.333Z,177.67
2018-11-06T03:13:32.200Z,167.93
2018-11-06T03:16:23.113Z,348.40
2018-11-06T03:19:14.060Z,270.13
2018-11-06T03:22:05.106Z,246.80
2018-11-06T03:24:55.980Z,132.37
2018-11-06T03:27:46.984Z,227.53
2018-11-06T03:30:37.898Z,350.67
2018-11-06T03:33:28.947Z,167.20
2018-11-06T03:36:19.868Z,163.93
2018-11-06T03:39:11.435Z,77.10
2018-11-06T03:42:02.574Z,127.77
2018-11-06T03:44:53.537Z,194.33
2018-11-06T03:48:03.257Z,193.37
2018-11-06T03:50:54.202Z,104.63
2018-11-06T03:53:45.209Z,171.50
2018-11-06T03:56:36.141Z,126.30
2018-11-06T03:59:45.643Z,101.13
2018-11-06T04:02:37.902Z,246.60
2018-11-06T04:08:41.098Z,119.10
2018-11-06T04:11:52.980Z,102.17
2018-11-06T04:14:43.870Z,78.63
2018-11-06T04:17:34.881Z,66.00
2018-11-06T04:20:26.647Z,200.17
2018-11-06T04:23:17.982Z,94.97
2018-11-06T04:26:09.783Z,146.83
2018-11-06T04:29:02.401Z,113.53
2018-11-06T04:31:55.597Z,89.67
2018-11-06T04:35:04.957Z,76.27
2018-11-06T04:37:56.478Z,203.03
2018-11-06T04:40:48.116Z,85.00
2018-11-06T04:43:57.796Z,233.63
2018-11-06T04:46:49.340Z,80.97
2018-11-06T04:49:42.057Z,257.63
2018-11-06T04:52:32.977Z,282.80
2018-11-06T04:55:23.969Z,119.17
2018-11-06T04:58:15.381Z,283.13
2018-11-06T05:01:07.205Z,346.77
2018-11-06T05:03:58.704Z,83.73
2018-11-06T05:06:49.672Z,230.93
2018-11-06T05:09:59.033Z,123.47
2018-11-06T05:12:51.015Z,168.97
2018-11-06T05:15:42.594Z,361.00
2018-11-06T05:18:33.626Z,410.20
2018-11-06T05:21:24.562Z,141.17
2018-11-06T05:27:26.436Z,126.80
2018-11-06T05:30:16.686Z,222.63
2018-11-06T05:33:26.273Z,211.80
2018-11-06T05:36:35.167Z,228.57
2018-11-06T05:39:26.310Z,63.23
2018-11-06T05:42:18.156Z,150.43
2018-11-06T05:45:08.486Z,154.40
2018-11-06T05:47:58.878Z,79.63
2018-11-06T05:51:07.762Z,97.00
2018-11-06T05:54:17.610Z,105.43
2018-11-06T05:57:07.935Z,65.43
2018-11-06T05:59:58.547Z,118.87
2018-11-06T06:02:50.024Z,69.60
2018-11-06T06:05:40.863Z,65.80
2018-11-06T06:08:31.338Z,98.57
2018-11-06T06:11:21.926Z,52.17
2018-11-06T06:14:31.379Z,89.70
2018-11-06T06:17:22.096Z,125.37
2018-11-06T06:20:12.708Z,147.17
2018-11-06T06:23:03.274Z,50.77
2018-11-06T06:26:12.611Z,108.87
2018-11-06T06:29:04.597Z,137.97
2018-11-06T06:32:16.276Z,80.37
2018-11-06T06:35:07.746Z,112.40
2018-11-06T06:37:58.506Z,141.23
2018-11-06T06:40:49.736Z,162.07
2018-11-06T06:43:40.881Z,101.17
2018-11-06T06:46:32.248Z,110.27
2018-11-06T06:49:22.620Z,116.93
2018-11-06T06:52:31.705Z,101.27
2018-11-06T06:55:22.219Z,91.80
2018-11-06T06:58:13.193Z,55.10
2018-11-06T07:01:03.679Z,56.40
2018-11-06T07:03:54.386Z,52.50
2018-11-06T07:06:46.382Z,67.07
2018-11-06T07:09:37.103Z,52.53
2018-11-06T07:12:46.382Z,116.37
2018-11-06T07:15:56.307Z,35.37
2018-11-06T07:22:16.995Z,51.10
2018-11-06T07:25:08.934Z,77.40
2018-11-06T07:28:18.237Z,61.30
2018-11-06T07:31:28.609Z,71.77
2018-11-06T07:34:19.751Z,62.93
2018-11-06T07:37:11.344Z,73.30
2018-11-06T07:40:02.437Z,78.63
2018-11-06T07:42:55.357Z,71.53
2018-11-06T07:45:47.493Z,83.27
2018-11-06T07:48:37.992Z,89.07
2018-11-06T07:51:29.174Z,71.87
2018-11-06T07:54:19.829Z,59.73
2018-11-06T07:57:10.473Z,55.97
2018-11-06T08:00:19.771Z,41.07
2018-11-06T08:03:10.335Z,31.63
2018-11-06T08:06:00.988Z,46.10
2018-11-06T08:08:51.625Z,122.97
2018-11-06T08:11:42.207Z,39.03
2018-11-06T08:14:32.871Z,36.33
2018-11-06T08:17:23.410Z,57.77
2018-11-06T08:20:14.937Z,42.30
2018-11-06T08:23:05.524Z,41.27
2018-11-06T08:25:56.128Z,48.27
2018-11-06T08:28:47.248Z,53.23
2018-11-06T08:31:38.866Z,31.40
2018-11-06T08:34:29.528Z,31.00
2018-11-06T08:37:20.020Z,39.60
2018-11-06T08:40:11.914Z,41.93
2018-11-06T08:43:20.900Z,40.60
2018-11-06T08:46:30.291Z,46.00
2018-11-06T08:49:21.095Z,45.70
2018-11-06T08:52:11.669Z,37.60
2018-11-06T08:55:02.271Z,39.37
2018-11-06T08:57:52.953Z,45.03
2018-11-06T09:00:43.607Z,39.37
2018-11-06T09:03:53.090Z,38.33
2018-11-06T09:06:43.713Z,41.97
2018-11-06T09:09:34.209Z,41.20
2018-11-06T09:12:24.740Z,42.40
2018-11-06T09:15:33.906Z,38.70
2018-11-06T09:18:24.539Z,43.47
2018-11-06T09:21:15.247Z,36.83
2018-11-06T09:24:24.369Z,35.23
2018-11-06T09:27:15.042Z,38.93
2018-11-06T09:30:12.109Z,39.20
2018-11-06T09:33:22.880Z,43.23
2018-11-06T09:36:13.386Z,40.00
2018-11-06T09:39:04.147Z,40.10
2018-11-06T09:41:54.725Z,39.10
2018-11-06T09:45:03.820Z,43.07
2018-11-06T09:47:54.363Z,37.03
2018-11-06T09:50:44.949Z,39.87
2018-11-06T09:53:35.734Z,37.03
2018-11-06T09:56:26.447Z,40.17
2018-11-06T09:59:17.017Z,37.13
2018-11-06T10:02:07.643Z,39.10
2018-11-06T10:04:58.153Z,37.77
2018-11-06T10:07:48.855Z,39.40
2018-11-06T10:10:39.283Z,39.37
2018-11-06T10:13:30.355Z,38.17
2018-11-06T10:16:20.889Z,37.23
2018-11-06T10:19:30.729Z,34.90
2018-11-06T10:22:02.498Z,35.40
2018-11-06T10:24:53.217Z,34.20
2018-11-06T10:27:44.082Z,70.03
2018-11-06T10:30:54.054Z,103.40
2018-11-06T10:34:03.426Z,31.30
2018-11-06T10:36:54.013Z,32.77
2018-11-06T10:39:44.533Z,36.03
2018-11-06T10:42:35.491Z,32.57
2018-11-06T10:45:26.075Z,33.77
2018-11-06T10:48:16.588Z,35.07
2018-11-06T10:51:07.248Z,37.80
2018-11-06T10:54:16.832Z,32.83
2018-11-06T10:57:07.677Z,32.83
2018-11-06T10:59:58.537Z,33.17
2018-11-06T11:03:07.575Z,32.03
2018-11-06T11:05:58.455Z,33.90
2018-11-06T11:09:07.461Z,31.47
2018-11-06T11:12:16.864Z,31.17
2018-11-06T11:15:07.435Z,31.07
2018-11-06T11:18:16.733Z,30.20
2018-11-06T11:21:08.032Z,30.03
2018-11-06T11:23:58.630Z,32.37
2018-11-06T11:26:50.193Z,33.43
2018-11-06T11:29:42.487Z,33.20
2018-11-06T11:32:35.409Z,35.10
2018-11-06T11:35:26.035Z,33.87
2018-11-06T11:38:16.613Z,31.23
2018-11-06T11:41:25.684Z,31.17
2018-11-06T11:44:16.177Z,31.70
2018-11-06T11:47:25.698Z,32.77
2018-11-06T11:50:16.889Z,34.30
2018-11-06T11:53:07.565Z,31.43
2018-11-06T11:56:17.004Z,29.53
2018-11-06T11:59:07.740Z,28.93
2018-11-06T12:02:16.874Z,33.00
2018-11-06T12:05:27.956Z,30.73
2018-11-06T12:08:38.352Z,28.13
2018-11-06T12:11:48.717Z,30.60
2018-11-06T12:14:40.410Z,30.30
2018-11-06T12:17:31.749Z,25.80
2018-11-06T12:20:22.559Z,27.43
2018-11-06T12:23:13.170Z,27.43
2018-11-06T12:26:03.800Z,28.57
2018-11-06T12:28:54.567Z,26.60
2018-11-06T12:32:04.057Z,29.77
2018-11-06T12:38:24.463Z,28.70
2018-11-06T12:41:15.033Z,27.13
2018-11-06T12:44:24.612Z,24.20
2018-11-06T12:47:15.151Z,26.87
2018-11-06T12:50:05.765Z,27.63
2018-11-06T12:52:56.413Z,25.53
2018-11-06T12:55:47.401Z,29.47
2018-11-06T12:58:37.965Z,25.33
2018-11-06T13:01:28.574Z,25.60
2018-11-06T13:04:19.103Z,27.27
2018-11-06T13:07:09.684Z,23.97
2018-11-06T13:09:41.437Z,24.67
2018-11-06T13:12:13.167Z,24.13
2018-11-06T13:14:44.902Z,24.87
2018-11-06T13:17:16.603Z,22.97
2018-11-06T13:19:48.334Z,23.87
2018-11-06T13:22:20.093Z,23.97
2018-11-06T13:24:51.870Z,21.53
2018-11-06T13:27:23.494Z,23.53
2018-11-06T13:29:55.218Z,23.23
2018-11-06T13:32:26.880Z,21.43
2018-11-06T13:34:58.375Z,28.73
2018-11-06T13:37:30.027Z,21.23
2018-11-06T13:40:01.661Z,65.17
2018-11-06T13:42:33.259Z,24.00
2018-11-06T13:45:04.934Z,52.90
2018-11-06T13:47:36.507Z,28.67
2018-11-06T13:50:08.820Z,29.13
2018-11-06T13:52:40.371Z,28.80
2018-11-06T13:55:13.944Z,27.07
2018-11-06T13:57:46.273Z,25.70
2018-11-06T14:00:19.889Z,26.13
2018-11-06T14:02:51.458Z,27.07
2018-11-06T14:05:23.010Z,25.20
2018-11-06T14:08:43.784Z,25.77
2018-11-06T14:11:15.412Z,29.07
2018-11-06T14:13:46.998Z,26.87
2018-11-06T14:16:18.562Z,31.67
2018-11-06T14:18:50.165Z,50.00
2018-11-06T14:21:21.825Z,40.13
2018-11-06T14:23:53.664Z,32.30
2018-11-06T14:26:25.274Z,29.53
2018-11-06T14:28:56.903Z,25.20
2018-11-06T14:31:28.460Z,27.03
2018-11-06T14:34:00.137Z,27.93
2018-11-06T14:36:31.666Z,28.57
2018-11-06T14:39:03.245Z,30.73
2018-11-06T14:41:34.836Z,26.20
2018-11-06T14:44:06.428Z,30.17
2018-11-06T14:46:37.983Z,29.80
2018-11-06T14:49:09.639Z,27.80
2018-11-06T14:51:41.200Z,31.03
2018-11-06T14:54:12.764Z,30.57
2018-11-06T14:56:44.324Z,33.40
2018-11-06T14:59:16.204Z,30.03
2018-11-06T15:01:47.849Z,33.40
2018-11-06T15:04:19.484Z,31.33
2018-11-06T15:06:51.206Z,32.13
2018-11-06T15:09:23.005Z,32.80
2018-11-06T15:11:54.774Z,34.93
2018-11-06T15:14:26.532Z,32.83
2018-11-06T15:16:58.286Z,35.30
2018-11-06T15:19:30.038Z,37.73
2018-11-06T15:22:01.748Z,37.53
2018-11-06T15:24:33.446Z,39.63
2018-11-06T15:27:05.138Z,36.57
2018-11-06T15:29:36.809Z,33.97
2018-11-06T15:32:08.522Z,39.90
2018-11-06T15:34:41.159Z,36.70
2018-11-06T15:37:12.910Z,39.53
2018-11-06T15:39:44.752Z,37.43
2018-11-06T15:42:16.495Z,38.83
2018-11-06T15:44:48.298Z,42.63
2018-11-06T15:47:20.022Z,34.37
2018-11-06T15:49:51.730Z,39.37
2018-11-06T15:52:23.431Z,41.07
2018-11-06T15:54:55.122Z,40.83
2018-11-06T15:57:26.839Z,37.87
2018-11-06T15:59:58.502Z,41.20
2018-11-06T16:02:30.227Z,46.17
2018-11-06T16:05:01.942Z,46.33
2018-11-06T16:07:33.623Z,43.00
2018-11-06T16:10:05.876Z,37.63
2018-11-06T16:12:37.556Z,38.13
2018-11-06T16:15:10.072Z,39.87
2018-11-06T16:17:41.825Z,56.73
2018-11-06T16:20:14.871Z,55.73
2018-11-06T16:22:46.729Z,59.23
2018-11-06T16:25:19.281Z,63.67
2018-11-06T16:27:50.942Z,59.73
2018-11-06T16:30:23.512Z,62.93
2018-11-06T16:32:55.177Z,66.97
2018-11-06T16:35:26.957Z,58.20
2018-11-06T16:37:58.702Z,59.37
2018-11-06T16:40:30.411Z,54.40
2018-11-06T16:43:02.069Z,55.63
2018-11-06T16:45:33.820Z,54.03
2018-11-06T16:48:05.545Z,56.80
2018-11-06T16:50:37.294Z,55.90
2018-11-06T16:53:09.222Z,55.37
2018-11-06T16:55:40.921Z,55.87
2018-11-06T16:58:12.744Z,55.53
2018-11-06T17:00:44.589Z,51.47
2018-11-06T17:03:16.279Z,50.80
2018-11-06T17:05:48.223Z,52.73
2018-11-06T17:08:20.049Z,55.17
2018-11-06T17:10:51.821Z,53.33
2018-11-06T17:13:23.521Z,53.30
2018-11-06T17:15:55.241Z,53.63
2018-11-06T17:18:27.033Z,53.87
2018-11-06T17:20:58.780Z,52.53
2018-11-06T17:23:30.656Z,52.57
2018-11-06T17:26:02.293Z,51.73
2018-11-06T17:28:34.066Z,53.00
2018-11-06T17:31:05.878Z,52.73
2018-11-06T17:33:37.643Z,53.57
2018-11-06T17:36:09.675Z,53.90
2018-11-06T17:38:41.405Z,47.87
2018-11-06T17:41:13.111Z,42.37
2018-11-06T17:43:44.895Z,48.13
2018-11-06T17:46:16.646Z,44.43
2018-11-06T17:48:48.494Z,47.27
2018-11-06T17:51:20.317Z,52.33
2018-11-06T17:53:52.117Z,54.40
2018-11-06T17:56:23.683Z,47.83
2018-11-06T17:58:55.222Z,49.70
2018-11-06T18:01:26.929Z,49.50
2018-11-06T18:03:58.728Z,54.73
2018-11-06T18:06:30.320Z,61.47
2018-11-06T18:09:02.031Z,66.00
2018-11-06T18:11:33.855Z,106.20
2018-11-06T18:14:05.557Z,125.33
2018-11-06T18:16:37.643Z,57.60
2018-11-06T18:19:09.406Z,47.17
2018-11-06T18:22:11.043Z,46.50
2018-11-06T18:24:42.354Z,42.57
2018-11-06T18:27:14.041Z,44.97
2018-11-06T18:29:45.629Z,49.93
2018-11-06T18:32:23.357Z,45.50
2018-11-06T18:34:55.123Z,42.83
2018-11-06T18:37:26.764Z,42.40
2018-11-06T18:39:58.464Z,46.63
2018-11-06T18:42:30.114Z,45.97
2018-11-06T18:45:01.745Z,42.70
2018-11-06T18:47:33.410Z,41.57
2018-11-06T18:50:05.213Z,43.33
2018-11-06T18:52:36.800Z,48.60
2018-11-06T18:55:08.570Z,48.97
2018-11-06T18:57:40.150Z,46.57
2018-11-06T19:00:22.724Z,45.37
2018-11-06T19:02:54.859Z,47.17
2018-11-06T19:05:26.776Z,79.37
2018-11-06T19:07:58.345Z,84.33
2018-11-06T19:10:29.981Z,78.07
2018-11-06T19:13:12.989Z,101.30
2018-11-06T19:16:03.395Z,70.37
2018-11-06T19:19:12.203Z,46.30
2018-11-06T19:22:02.520Z,56.40
2018-11-06T19:24:52.876Z,63.13
2018-11-06T19:27:43.241Z,73.07
2018-11-06T19:33:35.351Z,68.90
2018-11-06T19:36:25.726Z,78.10
2018-11-06T19:39:16.131Z,87.20
2018-11-06T19:41:58.866Z,82.13
2018-11-06T19:45:07.794Z,92.93
2018-11-06T19:47:58.124Z,59.93
2018-11-06T19:50:48.538Z,103.83
2018-11-06T19:53:38.959Z,94.07
2018-11-06T19:56:29.242Z,87.17
2018-11-06T19:59:38.070Z,96.20
2018-11-06T20:02:28.376Z,60.87
2018-11-06T20:05:19.449Z,83.93
2018-11-06T20:08:09.688Z,65.03
2018-11-06T20:11:00.047Z,69.13
2018-11-06T20:14:08.972Z,56.73
2018-11-06T20:16:40.438Z,55.50
2018-11-06T20:19:30.795Z,58.10
2018-11-06T20:22:21.299Z,52.77
2018-11-06T20:25:12.728Z,71.43
2018-11-06T20:28:03.027Z,70.07
2018-11-06T20:30:53.423Z,58.67
2018-11-06T20:33:43.843Z,59.33
2018-11-06T20:36:34.024Z,55.43
2018-11-06T20:39:42.933Z,75.93
2018-11-06T20:42:33.267Z,67.67
2018-11-06T20:45:24.067Z,70.13
2018-11-06T20:48:32.941Z,74.20
2018-11-06T20:51:23.243Z,65.87
2018-11-06T20:54:13.954Z,61.90
2018-11-06T20:57:24.178Z,62.50
2018-11-06T21:00:37.163Z,68.17
2018-11-06T21:03:27.474Z,71.30
2018-11-06T21:06:17.774Z,70.07
2018-11-06T21:09:13.409Z,67.50
2018-11-06T21:15:13.984Z,72.37
2018-11-06T21:18:04.409Z,72.77
2018-11-06T21:20:55.741Z,68.03
2018-11-06T21:24:06.151Z,81.70
2018-11-06T21:27:16.148Z,86.20
2018-11-06T21:30:10.244Z,86.30
2018-11-06T21:33:04.171Z,87.00
2018-11-06T21:35:56.616Z,80.17
2018-11-06T21:39:07.007Z,83.00
2018-11-06T21:41:58.991Z,84.27
2018-11-06T21:44:50.547Z,94.80
2018-11-06T21:47:51.599Z,100.23
2018-11-06T21:50:43.790Z,95.10
2018-11-06T21:53:37.816Z,94.77
2018-11-06T21:56:28.209Z,91.63
2018-11-06T21:59:20.120Z,96.07
2018-11-06T22:02:12.383Z,89.03
2018-11-06T22:05:07.837Z,115.37
2018-11-06T22:08:09.800Z,105.53
2018-11-06T22:11:00.876Z,101.47
2018-11-06T22:14:10.876Z,101.20
2018-11-06T22:17:01.640Z,43.17
2018-11-06T22:19:52.851Z,42.73
2018-11-06T22:22:46.197Z,47.83
2018-11-06T22:25:37.178Z,46.73
2018-11-06T22:28:28.138Z,47.53
2018-11-06T22:31:38.023Z,45.73
2018-11-06T22:34:47.134Z,48.53
2018-11-06T22:37:38.060Z,78.63
2018-11-06T22:40:28.991Z,88.50
2018-11-06T22:43:19.985Z,88.30
2018-11-06T22:46:11.014Z,86.73
2018-11-06T22:49:20.663Z,90.40
2018-11-06T22:52:31.103Z,85.40
2018-11-06T22:55:23.360Z,80.43
2018-11-06T22:58:14.329Z,88.67
2018-11-06T23:01:23.810Z,91.23
2018-11-06T23:04:14.724Z,74.47
2018-11-06T23:07:42.822Z,80.40
2018-11-06T23:10:52.575Z,67.67
2018-11-06T23:13:43.966Z,73.93
2018-11-06T23:16:36.124Z,77.47
2018-11-06T23:19:29.296Z,86.87
2018-11-06T23:22:20.933Z,83.50
2018-11-06T23:25:11.863Z,83.17
2018-11-06T23:28:03.004Z,76.83
2018-11-06T23:30:54.905Z,79.23
2018-11-06T23:33:46.943Z,86.70
2018-11-06T23:37:15.042Z,78.30
2018-11-06T23:40:06.131Z,56.97
2018-11-06T23:43:16.561Z,63.13
2018-11-06T23:46:08.885Z,62.97
2018-11-06T23:49:19.011Z,75.40
2018-11-06T23:52:10.078Z,64.67
2018-11-06T23:55:20.564Z,75.47
2018-11-06T23:58:11.482Z,62.30
